sensor_id;sensor_type;location;lat;lon;timestamp;P1;durP1;ratioP1;P2;durP2;ratioP2
81901;SDS011;71369;50.796;3.290;2024-02-15T00:00:28;13.95;;;5.57;;
81901;SDS011;71369;50.796;3.290;2024-02-15T00:02:53;9.43;;;4.20;;
81901;SDS011;71369;50.796;3.290;2024-02-15T00:05:19;13.70;;;4.38;;
81901;SDS011;71369;50.796;3.290;2024-02-15T00:07:45;7.95;;;3.95;;
81901;SDS011;71369;50.796;3.290;2024-02-15T00:10:14;9.25;;;4.32;;
81901;SDS011;71369;50.796;3.290;2024-02-15T00:12:40;15.82;;;4.75;;
81901;SDS011;71369;50.796;3.290;2024-02-15T00:15:05;7.20;;;3.60;;
81901;SDS011;71369;50.796;3.290;2024-02-15T00:17:33;10.25;;;3.80;;
81901;SDS011;71369;50.796;3.290;2024-02-15T00:20:00;7.68;;;3.40;;
81901;SDS011;71369;50.796;3.290;2024-02-15T00:22:30;10.00;;;3.80;;
81901;SDS011;71369;50.796;3.290;2024-02-15T00:24:56;11.18;;;3.47;;
81901;SDS011;71369;50.796;3.290;2024-02-15T00:27:23;11.32;;;3.75;;
81901;SDS011;71369;50.796;3.290;2024-02-15T00:29:48;14.85;;;3.67;;
81901;SDS011;71369;50.796;3.290;2024-02-15T00:32:14;10.93;;;3.80;;
81901;SDS011;71369;50.796;3.290;2024-02-15T00:34:40;11.30;;;4.32;;
81901;SDS011;71369;50.796;3.290;2024-02-15T00:37:06;15.95;;;4.75;;
81901;SDS011;71369;50.796;3.290;2024-02-15T00:39:31;14.13;;;4.38;;
81901;SDS011;71369;50.796;3.290;2024-02-15T00:41:57;11.95;;;4.10;;
81901;SDS011;71369;50.796;3.290;2024-02-15T00:44:25;11.75;;;3.88;;
81901;SDS011;71369;50.796;3.290;2024-02-15T00:46:51;10.82;;;4.00;;
81901;SDS011;71369;50.796;3.290;2024-02-15T00:49:17;11.52;;;4.70;;
81901;SDS011;71369;50.796;3.290;2024-02-15T00:51:45;11.93;;;4.13;;
81901;SDS011;71369;50.796;3.290;2024-02-15T00:54:11;8.43;;;3.90;;
81901;SDS011;71369;50.796;3.290;2024-02-15T00:56:37;11.73;;;4.25;;
81901;SDS011;71369;50.796;3.290;2024-02-15T00:59:03;7.82;;;4.18;;
81901;SDS011;71369;50.796;3.290;2024-02-15T01:01:30;12.98;;;4.63;;
81901;SDS011;71369;50.796;3.290;2024-02-15T01:04:02;14.15;;;4.15;;
81901;SDS011;71369;50.796;3.290;2024-02-15T01:06:28;13.07;;;4.55;;
81901;SDS011;71369;50.796;3.290;2024-02-15T01:08:54;14.95;;;4.75;;
81901;SDS011;71369;50.796;3.290;2024-02-15T01:11:20;16.58;;;4.97;;
81901;SDS011;71369;50.796;3.290;2024-02-15T01:13:46;9.10;;;4.82;;
81901;SDS011;71369;50.796;3.290;2024-02-15T01:16:12;14.07;;;5.57;;
81901;SDS011;71369;50.796;3.290;2024-02-15T01:18:37;11.73;;;5.03;;
81901;SDS011;71369;50.796;3.290;2024-02-15T01:21:03;11.00;;;4.05;;
81901;SDS011;71369;50.796;3.290;2024-02-15T01:23:29;9.82;;;4.40;;
81901;SDS011;71369;50.796;3.290;2024-02-15T01:25:56;14.68;;;4.63;;
81901;SDS011;71369;50.796;3.290;2024-02-15T01:28:22;10.23;;;4.63;;
81901;SDS011;71369;50.796;3.290;2024-02-15T01:30:48;12.00;;;4.30;;
81901;SDS011;71369;50.796;3.290;2024-02-15T01:33:15;11.90;;;4.90;;
81901;SDS011;71369;50.796;3.290;2024-02-15T01:35:40;12.48;;;3.95;;
81901;SDS011;71369;50.796;3.290;2024-02-15T01:38:06;10.18;;;4.57;;
81901;SDS011;71369;50.796;3.290;2024-02-15T01:40:32;12.63;;;4.85;;
81901;SDS011;71369;50.796;3.290;2024-02-15T01:42:58;10.35;;;4.50;;
81901;SDS011;71369;50.796;3.290;2024-02-15T01:45:26;8.75;;;4.85;;
81901;SDS011;71369;50.796;3.290;2024-02-15T01:47:53;9.15;;;4.40;;
81901;SDS011;71369;50.796;3.290;2024-02-15T01:50:19;10.70;;;4.65;;
81901;SDS011;71369;50.796;3.290;2024-02-15T01:52:47;12.35;;;4.93;;
81901;SDS011;71369;50.796;3.290;2024-02-15T01:55:15;10.05;;;4.93;;
81901;SDS011;71369;50.796;3.290;2024-02-15T01:57:45;12.45;;;4.18;;
81901;SDS011;71369;50.796;3.290;2024-02-15T02:00:11;10.65;;;4.85;;
81901;SDS011;71369;50.796;3.290;2024-02-15T02:02:38;9.68;;;4.10;;
81901;SDS011;71369;50.796;3.290;2024-02-15T02:05:07;8.90;;;4.22;;
81901;SDS011;71369;50.796;3.290;2024-02-15T02:07:33;12.88;;;4.93;;
81901;SDS011;71369;50.796;3.290;2024-02-15T02:09:59;23.02;;;5.55;;
81901;SDS011;71369;50.796;3.290;2024-02-15T02:12:25;9.75;;;4.97;;
81901;SDS011;71369;50.796;3.290;2024-02-15T02:14:54;10.48;;;6.18;;
81901;SDS011;71369;50.796;3.290;2024-02-15T02:17:20;12.73;;;5.93;;
81901;SDS011;71369;50.796;3.290;2024-02-15T02:19:46;12.23;;;5.13;;
81901;SDS011;71369;50.796;3.290;2024-02-15T02:22:13;15.15;;;5.93;;
81901;SDS011;71369;50.796;3.290;2024-02-15T02:27:33;12.18;;;5.47;;
81901;SDS011;71369;50.796;3.290;2024-02-15T02:30:02;13.40;;;5.40;;
81901;SDS011;71369;50.796;3.290;2024-02-15T02:32:34;9.20;;;5.45;;
81901;SDS011;71369;50.796;3.290;2024-02-15T02:35:01;12.68;;;5.55;;
81901;SDS011;71369;50.796;3.290;2024-02-15T02:37:28;13.02;;;6.53;;
81901;SDS011;71369;50.796;3.290;2024-02-15T02:39:54;13.95;;;7.28;;
81901;SDS011;71369;50.796;3.290;2024-02-15T02:42:23;11.38;;;5.50;;
81901;SDS011;71369;50.796;3.290;2024-02-15T02:44:48;12.13;;;6.10;;
81901;SDS011;71369;50.796;3.290;2024-02-15T02:47:14;8.95;;;5.60;;
81901;SDS011;71369;50.796;3.290;2024-02-15T02:49:40;13.77;;;6.32;;
81901;SDS011;71369;50.796;3.290;2024-02-15T02:52:06;9.60;;;5.03;;
81901;SDS011;71369;50.796;3.290;2024-02-15T02:54:32;19.25;;;6.05;;
81901;SDS011;71369;50.796;3.290;2024-02-15T02:56:58;9.80;;;5.20;;
81901;SDS011;71369;50.796;3.290;2024-02-15T02:59:24;15.20;;;6.15;;
81901;SDS011;71369;50.796;3.290;2024-02-15T03:01:50;10.95;;;6.15;;
81901;SDS011;71369;50.796;3.290;2024-02-15T03:04:16;13.18;;;6.13;;
81901;SDS011;71369;50.796;3.290;2024-02-15T03:06:42;13.18;;;5.97;;
81901;SDS011;71369;50.796;3.290;2024-02-15T03:09:08;12.88;;;5.40;;
81901;SDS011;71369;50.796;3.290;2024-02-15T03:11:35;11.88;;;5.68;;
81901;SDS011;71369;50.796;3.290;2024-02-15T03:14:02;13.05;;;5.45;;
81901;SDS011;71369;50.796;3.290;2024-02-15T03:16:30;11.90;;;5.35;;
81901;SDS011;71369;50.796;3.290;2024-02-15T03:19:03;8.90;;;5.40;;
81901;SDS011;71369;50.796;3.290;2024-02-15T03:21:29;11.98;;;5.07;;
81901;SDS011;71369;50.796;3.290;2024-02-15T03:23:55;10.80;;;5.05;;
81901;SDS011;71369;50.796;3.290;2024-02-15T03:26:30;10.38;;;3.92;;
81901;SDS011;71369;50.796;3.290;2024-02-15T03:29:04;12.93;;;4.40;;
81901;SDS011;71369;50.796;3.290;2024-02-15T03:31:32;13.50;;;4.60;;
81901;SDS011;71369;50.796;3.290;2024-02-15T03:34:01;12.98;;;4.43;;
81901;SDS011;71369;50.796;3.290;2024-02-15T03:36:28;8.00;;;4.50;;
81901;SDS011;71369;50.796;3.290;2024-02-15T03:38:54;9.75;;;4.75;;
81901;SDS011;71369;50.796;3.290;2024-02-15T03:41:21;6.57;;;3.95;;
81901;SDS011;71369;50.796;3.290;2024-02-15T03:43:47;9.80;;;3.95;;
81901;SDS011;71369;50.796;3.290;2024-02-15T03:46:13;9.10;;;4.10;;
81901;SDS011;71369;50.796;3.290;2024-02-15T03:48:41;13.00;;;4.95;;
81901;SDS011;71369;50.796;3.290;2024-02-15T03:53:40;11.70;;;3.65;;
81901;SDS011;71369;50.796;3.290;2024-02-15T03:56:06;9.45;;;4.00;;
81901;SDS011;71369;50.796;3.290;2024-02-15T03:58:33;13.80;;;4.45;;
81901;SDS011;71369;50.796;3.290;2024-02-15T04:01:00;10.80;;;4.63;;
81901;SDS011;71369;50.796;3.290;2024-02-15T04:03:25;12.45;;;4.68;;
81901;SDS011;71369;50.796;3.290;2024-02-15T04:05:55;10.68;;;5.43;;
81901;SDS011;71369;50.796;3.290;2024-02-15T04:08:20;11.35;;;5.07;;
81901;SDS011;71369;50.796;3.290;2024-02-15T04:10:46;16.08;;;5.28;;
81901;SDS011;71369;50.796;3.290;2024-02-15T04:13:12;12.52;;;5.95;;
81901;SDS011;71369;50.796;3.290;2024-02-15T04:15:37;9.85;;;4.93;;
81901;SDS011;71369;50.796;3.290;2024-02-15T04:18:03;12.88;;;5.65;;
81901;SDS011;71369;50.796;3.290;2024-02-15T04:20:29;16.63;;;6.10;;
81901;SDS011;71369;50.796;3.290;2024-02-15T04:22:55;14.73;;;5.70;;
81901;SDS011;71369;50.796;3.290;2024-02-15T04:25:25;10.55;;;6.15;;
81901;SDS011;71369;50.796;3.290;2024-02-15T04:27:53;15.82;;;6.32;;
81901;SDS011;71369;50.796;3.290;2024-02-15T04:30:19;13.98;;;5.90;;
81901;SDS011;71369;50.796;3.290;2024-02-15T04:32:46;16.33;;;6.10;;
81901;SDS011;71369;50.796;3.290;2024-02-15T04:35:12;15.25;;;6.50;;
81901;SDS011;71369;50.796;3.290;2024-02-15T04:37:39;14.73;;;5.78;;
81901;SDS011;71369;50.796;3.290;2024-02-15T04:40:06;16.25;;;6.38;;
81901;SDS011;71369;50.796;3.290;2024-02-15T04:42:35;12.25;;;5.82;;
81901;SDS011;71369;50.796;3.290;2024-02-15T04:45:05;15.30;;;6.43;;
81901;SDS011;71369;50.796;3.290;2024-02-15T04:47:35;12.35;;;7.05;;
81901;SDS011;71369;50.796;3.290;2024-02-15T04:50:01;12.02;;;5.97;;
81901;SDS011;71369;50.796;3.290;2024-02-15T04:52:27;18.00;;;6.13;;
81901;SDS011;71369;50.796;3.290;2024-02-15T04:54:53;13.52;;;5.95;;
81901;SDS011;71369;50.796;3.290;2024-02-15T04:57:24;16.92;;;6.55;;
81901;SDS011;71369;50.796;3.290;2024-02-15T04:59:53;18.92;;;7.68;;
81901;SDS011;71369;50.796;3.290;2024-02-15T05:02:29;16.77;;;6.68;;
81901;SDS011;71369;50.796;3.290;2024-02-15T05:04:55;11.80;;;5.88;;
81901;SDS011;71369;50.796;3.290;2024-02-15T05:07:21;10.20;;;5.80;;
81901;SDS011;71369;50.796;3.290;2024-02-15T05:09:48;13.05;;;5.90;;
81901;SDS011;71369;50.796;3.290;2024-02-15T05:12:21;9.90;;;5.75;;
81901;SDS011;71369;50.796;3.290;2024-02-15T05:14:50;11.57;;;5.10;;
81901;SDS011;71369;50.796;3.290;2024-02-15T05:17:17;12.38;;;5.20;;
81901;SDS011;71369;50.796;3.290;2024-02-15T05:19:43;10.90;;;5.43;;
81901;SDS011;71369;50.796;3.290;2024-02-15T05:22:09;9.75;;;5.10;;
81901;SDS011;71369;50.796;3.290;2024-02-15T05:24:36;11.85;;;4.30;;
81901;SDS011;71369;50.796;3.290;2024-02-15T05:27:04;11.00;;;4.38;;
81901;SDS011;71369;50.796;3.290;2024-02-15T05:29:29;8.20;;;4.43;;
81901;SDS011;71369;50.796;3.290;2024-02-15T05:31:59;9.77;;;4.55;;
81901;SDS011;71369;50.796;3.290;2024-02-15T05:34:25;10.00;;;4.40;;
81901;SDS011;71369;50.796;3.290;2024-02-15T05:36:51;10.18;;;4.80;;
81901;SDS011;71369;50.796;3.290;2024-02-15T05:39:17;11.32;;;4.43;;
81901;SDS011;71369;50.796;3.290;2024-02-15T05:41:46;8.95;;;4.15;;
81901;SDS011;71369;50.796;3.290;2024-02-15T05:44:13;8.68;;;4.30;;
81901;SDS011;71369;50.796;3.290;2024-02-15T05:46:43;10.13;;;4.53;;
81901;SDS011;71369;50.796;3.290;2024-02-15T05:49:09;9.43;;;4.32;;
81901;SDS011;71369;50.796;3.290;2024-02-15T05:54:06;9.38;;;4.82;;
81901;SDS011;71369;50.796;3.290;2024-02-15T05:56:31;11.52;;;4.43;;
81901;SDS011;71369;50.796;3.290;2024-02-15T05:58:57;13.52;;;4.75;;
81901;SDS011;71369;50.796;3.290;2024-02-15T06:01:23;14.23;;;5.28;;
81901;SDS011;71369;50.796;3.290;2024-02-15T06:03:49;10.35;;;3.75;;
81901;SDS011;71369;50.796;3.290;2024-02-15T06:06:15;9.80;;;4.07;;
81901;SDS011;71369;50.796;3.290;2024-02-15T06:08:41;7.88;;;4.10;;
81901;SDS011;71369;50.796;3.290;2024-02-15T06:11:11;8.90;;;4.25;;
81901;SDS011;71369;50.796;3.290;2024-02-15T06:13:37;8.43;;;4.00;;
81901;SDS011;71369;50.796;3.290;2024-02-15T06:16:03;6.93;;;3.55;;
81901;SDS011;71369;50.796;3.290;2024-02-15T06:18:34;14.60;;;3.90;;
81901;SDS011;71369;50.796;3.290;2024-02-15T06:20:59;10.05;;;3.80;;
81901;SDS011;71369;50.796;3.290;2024-02-15T06:23:26;7.97;;;3.45;;
81901;SDS011;71369;50.796;3.290;2024-02-15T06:25:53;8.50;;;3.90;;
81901;SDS011;71369;50.796;3.290;2024-02-15T06:28:20;8.25;;;3.28;;
81901;SDS011;71369;50.796;3.290;2024-02-15T06:31:04;9.10;;;3.33;;
81901;SDS011;71369;50.796;3.290;2024-02-15T06:33:53;7.28;;;3.25;;
81901;SDS011;71369;50.796;3.290;2024-02-15T06:36:45;10.95;;;4.60;;
81901;SDS011;71369;50.796;3.290;2024-02-15T06:39:31;5.93;;;3.38;;
81901;SDS011;71369;50.796;3.290;2024-02-15T06:42:06;8.68;;;3.80;;
81901;SDS011;71369;50.796;3.290;2024-02-15T06:44:36;5.57;;;3.35;;
81901;SDS011;71369;50.796;3.290;2024-02-15T06:47:05;10.77;;;3.10;;
81901;SDS011;71369;50.796;3.290;2024-02-15T06:49:31;6.03;;;3.35;;
81901;SDS011;71369;50.796;3.290;2024-02-15T06:51:58;6.47;;;3.28;;
81901;SDS011;71369;50.796;3.290;2024-02-15T06:54:27;7.55;;;2.90;;
81901;SDS011;71369;50.796;3.290;2024-02-15T06:56:53;6.05;;;2.97;;
81901;SDS011;71369;50.796;3.290;2024-02-15T06:59:22;7.32;;;3.70;;
81901;SDS011;71369;50.796;3.290;2024-02-15T07:01:52;7.38;;;3.65;;
81901;SDS011;71369;50.796;3.290;2024-02-15T07:04:18;9.35;;;3.85;;
81901;SDS011;71369;50.796;3.290;2024-02-15T07:06:45;7.50;;;3.33;;
81901;SDS011;71369;50.796;3.290;2024-02-15T07:09:13;4.97;;;3.30;;
81901;SDS011;71369;50.796;3.290;2024-02-15T07:11:45;10.27;;;4.07;;
81901;SDS011;71369;50.796;3.290;2024-02-15T07:14:11;11.70;;;4.05;;
81901;SDS011;71369;50.796;3.290;2024-02-15T07:16:39;9.25;;;4.05;;
81901;SDS011;71369;50.796;3.290;2024-02-15T07:19:05;9.32;;;3.67;;
81901;SDS011;71369;50.796;3.290;2024-02-15T07:21:34;5.90;;;3.47;;
81901;SDS011;71369;50.796;3.290;2024-02-15T07:24:01;11.57;;;4.25;;
81901;SDS011;71369;50.796;3.290;2024-02-15T07:26:27;9.45;;;4.53;;
81901;SDS011;71369;50.796;3.290;2024-02-15T07:28:56;13.90;;;4.45;;
81901;SDS011;71369;50.796;3.290;2024-02-15T07:31:22;8.15;;;4.18;;
81901;SDS011;71369;50.796;3.290;2024-02-15T07:33:52;7.70;;;4.45;;
81901;SDS011;71369;50.796;3.290;2024-02-15T07:36:22;9.35;;;3.85;;
81901;SDS011;71369;50.796;3.290;2024-02-15T07:38:55;28.58;;;7.25;;
81901;SDS011;71369;50.796;3.290;2024-02-15T07:41:30;8.88;;;4.25;;
81901;SDS011;71369;50.796;3.290;2024-02-15T07:43:57;11.02;;;4.18;;
81901;SDS011;71369;50.796;3.290;2024-02-15T07:46:25;8.48;;;4.13;;
81901;SDS011;71369;50.796;3.290;2024-02-15T07:49:16;7.45;;;3.75;;
81901;SDS011;71369;50.796;3.290;2024-02-15T07:51:45;10.40;;;4.43;;
81901;SDS011;71369;50.796;3.290;2024-02-15T07:54:17;9.60;;;4.97;;
81901;SDS011;71369;50.796;3.290;2024-02-15T07:56:43;8.90;;;4.25;;
81901;SDS011;71369;50.796;3.290;2024-02-15T07:59:09;5.95;;;3.92;;
81901;SDS011;71369;50.796;3.290;2024-02-15T08:01:34;6.43;;;3.88;;
81901;SDS011;71369;50.796;3.290;2024-02-15T08:04:00;8.38;;;4.05;;
81901;SDS011;71369;50.796;3.290;2024-02-15T08:06:26;9.23;;;3.67;;
81901;SDS011;71369;50.796;3.290;2024-02-15T08:08:53;9.18;;;3.70;;
81901;SDS011;71369;50.796;3.290;2024-02-15T08:11:19;10.73;;;4.18;;
81901;SDS011;71369;50.796;3.290;2024-02-15T08:13:45;7.03;;;3.10;;
81901;SDS011;71369;50.796;3.290;2024-02-15T08:16:18;5.00;;;3.00;;
81901;SDS011;71369;50.796;3.290;2024-02-15T08:18:47;6.05;;;2.75;;
81901;SDS011;71369;50.796;3.290;2024-02-15T08:21:13;8.43;;;3.22;;
81901;SDS011;71369;50.796;3.290;2024-02-15T08:23:39;10.30;;;4.55;;
81901;SDS011;71369;50.796;3.290;2024-02-15T08:26:05;7.20;;;3.40;;
81901;SDS011;71369;50.796;3.290;2024-02-15T08:28:31;7.00;;;2.88;;
81901;SDS011;71369;50.796;3.290;2024-02-15T08:30:57;11.18;;;3.67;;
81901;SDS011;71369;50.796;3.290;2024-02-15T08:33:26;7.75;;;3.42;;
81901;SDS011;71369;50.796;3.290;2024-02-15T08:35:53;8.13;;;3.72;;
81901;SDS011;71369;50.796;3.290;2024-02-15T08:38:20;5.55;;;2.47;;
81901;SDS011;71369;50.796;3.290;2024-02-15T08:40:49;5.22;;;2.83;;
81901;SDS011;71369;50.796;3.290;2024-02-15T08:43:15;6.75;;;2.47;;
81901;SDS011;71369;50.796;3.290;2024-02-15T08:45:41;6.03;;;2.92;;
81901;SDS011;71369;50.796;3.290;2024-02-15T08:48:08;8.50;;;2.70;;
81901;SDS011;71369;50.796;3.290;2024-02-15T08:50:34;7.40;;;2.78;;
81901;SDS011;71369;50.796;3.290;2024-02-15T08:53:00;4.10;;;2.35;;
81901;SDS011;71369;50.796;3.290;2024-02-15T08:55:26;5.03;;;2.70;;
81901;SDS011;71369;50.796;3.290;2024-02-15T08:57:53;4.53;;;2.47;;
81901;SDS011;71369;50.796;3.290;2024-02-15T09:00:19;11.02;;;3.00;;
81901;SDS011;71369;50.796;3.290;2024-02-15T09:02:45;5.35;;;2.22;;
81901;SDS011;71369;50.796;3.290;2024-02-15T09:05:12;7.57;;;2.55;;
81901;SDS011;71369;50.796;3.290;2024-02-15T09:07:41;5.50;;;2.75;;
81901;SDS011;71369;50.796;3.290;2024-02-15T09:10:10;6.25;;;2.65;;
81901;SDS011;71369;50.796;3.290;2024-02-15T09:12:41;8.05;;;3.17;;
81901;SDS011;71369;50.796;3.290;2024-02-15T09:15:16;5.22;;;2.70;;
81901;SDS011;71369;50.796;3.290;2024-02-15T09:17:43;6.15;;;2.88;;
81901;SDS011;71369;50.796;3.290;2024-02-15T09:20:14;5.85;;;2.60;;
81901;SDS011;71369;50.796;3.290;2024-02-15T09:22:48;8.73;;;2.95;;
81901;SDS011;71369;50.796;3.290;2024-02-15T09:25:17;7.00;;;2.75;;
81901;SDS011;71369;50.796;3.290;2024-02-15T09:27:44;3.58;;;2.10;;
81901;SDS011;71369;50.796;3.290;2024-02-15T09:30:13;6.35;;;1.95;;
81901;SDS011;71369;50.796;3.290;2024-02-15T09:32:40;4.25;;;2.25;;
81901;SDS011;71369;50.796;3.290;2024-02-15T09:35:07;4.68;;;2.10;;
81901;SDS011;71369;50.796;3.290;2024-02-15T09:37:44;4.82;;;2.65;;
81901;SDS011;71369;50.796;3.290;2024-02-15T09:40:14;6.55;;;2.20;;
81901;SDS011;71369;50.796;3.290;2024-02-15T09:42:42;4.40;;;2.20;;
81901;SDS011;71369;50.796;3.290;2024-02-15T09:45:10;4.57;;;2.25;;
81901;SDS011;71369;50.796;3.290;2024-02-15T09:47:40;4.38;;;2.00;;
81901;SDS011;71369;50.796;3.290;2024-02-15T09:50:16;7.97;;;2.90;;
81901;SDS011;71369;50.796;3.290;2024-02-15T09:52:49;4.18;;;2.08;;
81901;SDS011;71369;50.796;3.290;2024-02-15T09:55:15;5.80;;;2.50;;
81901;SDS011;71369;50.796;3.290;2024-02-15T09:57:43;5.75;;;2.05;;
81901;SDS011;71369;50.796;3.290;2024-02-15T10:00:11;5.82;;;2.10;;
81901;SDS011;71369;50.796;3.290;2024-02-15T10:02:42;6.25;;;2.10;;
81901;SDS011;71369;50.796;3.290;2024-02-15T10:05:09;6.15;;;2.67;;
81901;SDS011;71369;50.796;3.290;2024-02-15T10:07:39;8.02;;;2.22;;
81901;SDS011;71369;50.796;3.290;2024-02-15T10:10:15;4.55;;;2.20;;
81901;SDS011;71369;50.796;3.290;2024-02-15T10:12:50;4.55;;;2.30;;
81901;SDS011;71369;50.796;3.290;2024-02-15T10:15:28;8.13;;;2.45;;
81901;SDS011;71369;50.796;3.290;2024-02-15T10:18:00;4.47;;;1.83;;
81901;SDS011;71369;50.796;3.290;2024-02-15T10:20:28;5.05;;;1.95;;
81901;SDS011;71369;50.796;3.290;2024-02-15T10:25:29;4.68;;;2.60;;
81901;SDS011;71369;50.796;3.290;2024-02-15T10:28:04;7.03;;;2.22;;
81901;SDS011;71369;50.796;3.290;2024-02-15T10:30:34;5.22;;;3.22;;
81901;SDS011;71369;50.796;3.290;2024-02-15T10:33:04;4.80;;;2.03;;
81901;SDS011;71369;50.796;3.290;2024-02-15T10:35:31;4.05;;;2.22;;
81901;SDS011;71369;50.796;3.290;2024-02-15T10:40:33;5.00;;;1.83;;
81901;SDS011;71369;50.796;3.290;2024-02-15T10:42:59;5.10;;;2.30;;
81901;SDS011;71369;50.796;3.290;2024-02-15T10:45:27;4.30;;;2.25;;
81901;SDS011;71369;50.796;3.290;2024-02-15T10:47:56;5.25;;;2.63;;
81901;SDS011;71369;50.796;3.290;2024-02-15T10:50:22;6.63;;;2.00;;
81901;SDS011;71369;50.796;3.290;2024-02-15T10:52:56;4.80;;;2.08;;
81901;SDS011;71369;50.796;3.290;2024-02-15T10:55:38;4.35;;;2.05;;
81901;SDS011;71369;50.796;3.290;2024-02-15T10:58:06;2.22;;;1.60;;
81901;SDS011;71369;50.796;3.290;2024-02-15T11:00:33;4.28;;;1.90;;
81901;SDS011;71369;50.796;3.290;2024-02-15T11:03:04;4.05;;;2.10;;
81901;SDS011;71369;50.796;3.290;2024-02-15T11:05:38;2.90;;;1.63;;
81901;SDS011;71369;50.796;3.290;2024-02-15T11:08:06;4.88;;;1.95;;
81901;SDS011;71369;50.796;3.290;2024-02-15T11:10:53;4.82;;;2.22;;
81901;SDS011;71369;50.796;3.290;2024-02-15T11:13:27;6.65;;;1.90;;
81901;SDS011;71369;50.796;3.290;2024-02-15T11:15:54;3.63;;;1.92;;
81901;SDS011;71369;50.796;3.290;2024-02-15T11:21:11;3.50;;;2.03;;
81901;SDS011;71369;50.796;3.290;2024-02-15T11:23:48;4.78;;;1.92;;
81901;SDS011;71369;50.796;3.290;2024-02-15T11:35:12;3.22;;;2.10;;
81901;SDS011;71369;50.796;3.290;2024-02-15T11:46:14;6.72;;;2.95;;
81901;SDS011;71369;50.796;3.290;2024-02-15T11:49:00;4.33;;;2.30;;
81901;SDS011;71369;50.796;3.290;2024-02-15T11:54:07;3.58;;;1.90;;
81901;SDS011;71369;50.796;3.290;2024-02-15T11:56:52;5.18;;;2.58;;
81901;SDS011;71369;50.796;3.290;2024-02-15T11:59:37;5.47;;;2.47;;
81901;SDS011;71369;50.796;3.290;2024-02-15T12:02:37;6.85;;;2.30;;
81901;SDS011;71369;50.796;3.290;2024-02-15T12:05:22;5.63;;;2.22;;
81901;SDS011;71369;50.796;3.290;2024-02-15T12:08:16;7.05;;;2.53;;
81901;SDS011;71369;50.796;3.290;2024-02-15T12:11:01;3.70;;;1.88;;
81901;SDS011;71369;50.796;3.290;2024-02-15T12:13:51;4.72;;;2.30;;
81901;SDS011;71369;50.796;3.290;2024-02-15T12:16:36;4.72;;;2.22;;
81901;SDS011;71369;50.796;3.290;2024-02-15T12:19:20;4.05;;;1.88;;
81901;SDS011;71369;50.796;3.290;2024-02-15T12:21:47;3.05;;;1.80;;
81901;SDS011;71369;50.796;3.290;2024-02-15T12:24:13;4.10;;;2.08;;
81901;SDS011;71369;50.796;3.290;2024-02-15T12:26:42;4.88;;;1.83;;
81901;SDS011;71369;50.796;3.290;2024-02-15T12:29:07;3.67;;;2.28;;
81901;SDS011;71369;50.796;3.290;2024-02-15T12:31:37;6.03;;;2.00;;
81901;SDS011;71369;50.796;3.290;2024-02-15T12:34:03;3.33;;;2.20;;
81901;SDS011;71369;50.796;3.290;2024-02-15T12:36:33;4.10;;;2.60;;
81901;SDS011;71369;50.796;3.290;2024-02-15T12:39:05;3.67;;;2.13;;
81901;SDS011;71369;50.796;3.290;2024-02-15T12:41:48;5.20;;;2.22;;
81901;SDS011;71369;50.796;3.290;2024-02-15T12:44:17;5.57;;;2.28;;
81901;SDS011;71369;50.796;3.290;2024-02-15T12:46:53;5.82;;;2.42;;
81901;SDS011;71369;50.796;3.290;2024-02-15T12:51:49;4.57;;;2.85;;
81901;SDS011;71369;50.796;3.290;2024-02-15T12:54:22;4.95;;;2.60;;
81901;SDS011;71369;50.796;3.290;2024-02-15T12:56:49;4.75;;;2.67;;
81901;SDS011;71369;50.796;3.290;2024-02-15T12:59:17;5.13;;;2.55;;
81901;SDS011;71369;50.796;3.290;2024-02-15T13:01:46;7.88;;;2.45;;
81901;SDS011;71369;50.796;3.290;2024-02-15T13:04:24;4.53;;;2.47;;
81901;SDS011;71369;50.796;3.290;2024-02-15T13:06:51;6.93;;;2.50;;
81901;SDS011;71369;50.796;3.290;2024-02-15T13:09:16;3.50;;;2.38;;
81901;SDS011;71369;50.796;3.290;2024-02-15T13:11:42;5.00;;;2.60;;
81901;SDS011;71369;50.796;3.290;2024-02-15T13:14:24;4.05;;;2.30;;
81901;SDS011;71369;50.796;3.290;2024-02-15T13:16:54;5.93;;;2.53;;
81901;SDS011;71369;50.796;3.290;2024-02-15T13:19:20;9.45;;;2.90;;
81901;SDS011;71369;50.796;3.290;2024-02-15T13:21:46;5.13;;;2.85;;
81901;SDS011;71369;50.796;3.290;2024-02-15T13:24:18;4.25;;;2.38;;
81901;SDS011;71369;50.796;3.290;2024-02-15T13:26:44;4.75;;;2.35;;
81901;SDS011;71369;50.796;3.290;2024-02-15T13:29:10;6.63;;;2.97;;
81901;SDS011;71369;50.796;3.290;2024-02-15T13:31:37;6.68;;;2.45;;
81901;SDS011;71369;50.796;3.290;2024-02-15T13:34:02;5.47;;;2.42;;
81901;SDS011;71369;50.796;3.290;2024-02-15T13:36:28;7.38;;;2.60;;
81901;SDS011;71369;50.796;3.290;2024-02-15T13:38:53;5.45;;;3.20;;
81901;SDS011;71369;50.796;3.290;2024-02-15T13:41:19;5.35;;;3.08;;
81901;SDS011;71369;50.796;3.290;2024-02-15T13:43:45;7.38;;;3.35;;
81901;SDS011;71369;50.796;3.290;2024-02-15T13:46:10;6.00;;;3.03;;
81901;SDS011;71369;50.796;3.290;2024-02-15T13:48:36;5.82;;;3.10;;
81901;SDS011;71369;50.796;3.290;2024-02-15T13:51:02;9.20;;;4.25;;
81901;SDS011;71369;50.796;3.290;2024-02-15T13:53:28;6.50;;;3.13;;
81901;SDS011;71369;50.796;3.290;2024-02-15T13:55:54;7.28;;;3.85;;
81901;SDS011;71369;50.796;3.290;2024-02-15T13:58:20;5.40;;;2.92;;
81901;SDS011;71369;50.796;3.290;2024-02-15T14:00:46;4.10;;;2.17;;
81901;SDS011;71369;50.796;3.290;2024-02-15T14:03:13;5.75;;;2.85;;
81901;SDS011;71369;50.796;3.290;2024-02-15T14:05:40;4.03;;;2.33;;
81901;SDS011;71369;50.796;3.290;2024-02-15T14:08:07;3.10;;;2.20;;
81901;SDS011;71369;50.796;3.290;2024-02-15T14:10:39;5.00;;;2.20;;
81901;SDS011;71369;50.796;3.290;2024-02-15T14:13:04;4.15;;;2.33;;
81901;SDS011;71369;50.796;3.290;2024-02-15T14:15:31;3.10;;;2.20;;
81901;SDS011;71369;50.796;3.290;2024-02-15T14:18:03;3.95;;;2.10;;
81901;SDS011;71369;50.796;3.290;2024-02-15T14:20:36;4.78;;;1.92;;
81901;SDS011;71369;50.796;3.290;2024-02-15T14:23:02;3.67;;;1.80;;
81901;SDS011;71369;50.796;3.290;2024-02-15T14:25:31;3.42;;;2.17;;
81901;SDS011;71369;50.796;3.290;2024-02-15T14:27:57;4.10;;;2.30;;
81901;SDS011;71369;50.796;3.290;2024-02-15T14:30:23;4.60;;;2.40;;
81901;SDS011;71369;50.796;3.290;2024-02-15T14:33:08;2.75;;;1.70;;
81901;SDS011;71369;50.796;3.290;2024-02-15T14:35:36;4.05;;;2.20;;
81901;SDS011;71369;50.796;3.290;2024-02-15T14:38:05;3.33;;;1.83;;
81901;SDS011;71369;50.796;3.290;2024-02-15T14:43:09;5.10;;;2.30;;
81901;SDS011;71369;50.796;3.290;2024-02-15T14:45:40;6.50;;;2.30;;
81901;SDS011;71369;50.796;3.290;2024-02-15T14:48:06;5.32;;;3.55;;
81901;SDS011;71369;50.796;3.290;2024-02-15T14:50:39;4.57;;;2.40;;
81901;SDS011;71369;50.796;3.290;2024-02-15T14:53:05;3.22;;;2.10;;
81901;SDS011;71369;50.796;3.290;2024-02-15T14:55:33;3.05;;;1.67;;
81901;SDS011;71369;50.796;3.290;2024-02-15T14:57:59;3.92;;;1.90;;
81901;SDS011;71369;50.796;3.290;2024-02-15T15:00:25;2.45;;;1.83;;
81901;SDS011;71369;50.796;3.290;2024-02-15T15:02:52;4.85;;;2.10;;
81901;SDS011;71369;50.796;3.290;2024-02-15T15:05:21;6.93;;;2.30;;
81901;SDS011;71369;50.796;3.290;2024-02-15T15:08:06;4.00;;;2.22;;
81901;SDS011;71369;50.796;3.290;2024-02-15T15:10:50;3.50;;;1.90;;
81901;SDS011;71369;50.796;3.290;2024-02-15T15:13:35;4.63;;;2.13;;
81901;SDS011;71369;50.796;3.290;2024-02-15T15:16:01;2.78;;;1.73;;
81901;SDS011;71369;50.796;3.290;2024-02-15T15:18:32;4.75;;;2.10;;
81901;SDS011;71369;50.796;3.290;2024-02-15T15:21:01;3.17;;;1.75;;
81901;SDS011;71369;50.796;3.290;2024-02-15T15:23:27;3.75;;;2.00;;
81901;SDS011;71369;50.796;3.290;2024-02-15T15:25:59;3.65;;;1.92;;
81901;SDS011;71369;50.796;3.290;2024-02-15T15:28:26;7.25;;;2.22;;
81901;SDS011;71369;50.796;3.290;2024-02-15T15:30:52;3.80;;;1.90;;
81901;SDS011;71369;50.796;3.290;2024-02-15T15:33:20;2.65;;;1.80;;